Terminal Aerodrome Forecast
Issued by NWS

Home | Current Version | Previous Version | Text Only | Print | Product List | Glossary On
Versions: 1 2 3 4 5 6 7 8 9 10 11 12 13
000
FTUS45 KABQ 190500
TAFGUP
TAF
KGUP 190527Z 1906/2006 15005KT P6SM SKC
     FM192000 33010KT P6SM SCT100
     FM192300 03005KT P6SM BKN100=

USA.gov is the U.S. government's official web portal to all federal, state and local government web resources and services.